createdAt,value
2023-02-28T00:01:58.745Z,-3.58
2023-02-28T00:07:07.416Z,-3.57
2023-02-28T00:12:15.855Z,-3.57
2023-02-28T00:17:25.083Z,-3.57
2023-02-28T00:22:34.026Z,-3.58
2023-02-28T00:27:43.148Z,-3.58
2023-02-28T00:32:52.204Z,-3.59
2023-02-28T00:38:00.093Z,-3.60
2023-02-28T00:43:08.584Z,-3.63
2023-02-28T00:48:17.633Z,-3.65
2023-02-28T00:53:28.279Z,-3.68
2023-02-28T00:58:38.941Z,-3.71
2023-02-28T01:03:47.153Z,-3.75
2023-02-28T01:08:56.317Z,-3.77
2023-02-28T01:14:05.473Z,-3.80
2023-02-28T01:19:14.164Z,-3.82
2023-02-28T01:24:21.495Z,-3.85
2023-02-28T01:29:29.192Z,-3.88
2023-02-28T01:34:37.316Z,-3.90
2023-02-28T01:39:46.284Z,-3.94
2023-02-28T01:45:09.922Z,-3.95
2023-02-28T01:50:22.449Z,-3.99
2023-02-28T01:55:33.673Z,-4.02
2023-02-28T02:00:44.104Z,-4.05
2023-02-28T02:05:52.502Z,-4.09
2023-02-28T02:11:03.171Z,-4.12
2023-02-28T02:16:19.690Z,-4.16
2023-02-28T02:22:05.208Z,-4.20
2023-02-28T02:27:52.666Z,-4.23
2023-02-28T02:33:20.152Z,-4.27
2023-02-28T02:38:38.276Z,-4.30
2023-02-28T02:43:52.721Z,-4.34
2023-02-28T02:49:03.668Z,-4.36
2023-02-28T02:54:17.213Z,-4.40
2023-02-28T02:59:27.411Z,-4.42
2023-02-28T03:04:41.753Z,-4.45
2023-02-28T03:09:58.170Z,-4.47
2023-02-28T03:15:17.741Z,-4.49
2023-02-28T03:20:38.612Z,-4.51
2023-02-28T03:25:55.534Z,-4.54
2023-02-28T03:31:11.330Z,-4.57
2023-02-28T03:36:26.208Z,-4.60
2023-02-28T03:41:40.450Z,-4.63
2023-02-28T03:46:52.302Z,-4.65
2023-02-28T03:52:04.200Z,-4.68
2023-02-28T03:57:18.974Z,-4.70
2023-02-28T04:02:26.381Z,-4.72
2023-02-28T04:07:35.362Z,-4.74
2023-02-28T04:12:43.563Z,-4.76
2023-02-28T04:17:52.306Z,-4.78
2023-02-28T04:23:01.041Z,-4.81
2023-02-28T04:28:11.131Z,-4.84
2023-02-28T04:33:19.382Z,-4.87
2023-02-28T04:38:27.493Z,-4.90
2023-02-28T04:43:36.053Z,-4.93
2023-02-28T04:48:45.710Z,-4.93
2023-02-28T04:53:55.508Z,-4.72
2023-02-28T04:59:03.816Z,-4.17
2023-02-28T05:04:12.946Z,-3.82
2023-02-28T05:09:21.171Z,-3.43
2023-02-28T05:14:29.412Z,-3.17
2023-02-28T05:19:38.139Z,-2.94
2023-02-28T05:24:46.405Z,-2.78
2023-02-28T05:29:55.029Z,-2.65
2023-02-28T05:35:02.439Z,-2.52
2023-02-28T05:40:12.798Z,-2.42
2023-02-28T05:45:23.159Z,-2.32
2023-02-28T05:50:30.520Z,-2.23
2023-02-28T05:55:38.980Z,-2.17
2023-02-28T06:00:46.939Z,-2.11
2023-02-28T06:05:54.634Z,-2.05
2023-02-28T06:11:05.458Z,-1.98
2023-02-28T06:16:15.488Z,-1.94
2023-02-28T06:21:23.932Z,-1.89
2023-02-28T06:26:32.268Z,-1.82
2023-02-28T06:31:41.370Z,-1.79
2023-02-28T06:36:49.806Z,-1.93
2023-02-28T06:41:58.593Z,-2.19
2023-02-28T06:47:07.946Z,-2.33
2023-02-28T06:52:21.126Z,-2.37
2023-02-28T06:57:32.019Z,-2.36
2023-02-28T07:02:40.646Z,-2.34
2023-02-28T07:07:49.032Z,-2.28
2023-02-28T07:12:57.299Z,-2.21
2023-02-28T07:18:06.259Z,-2.11
2023-02-28T07:23:15.202Z,-2.00
2023-02-28T07:28:23.558Z,-1.86
2023-02-28T07:33:31.958Z,-1.72
2023-02-28T07:38:40.551Z,-1.55
2023-02-28T07:43:49.567Z,-1.37
2023-02-28T07:49:00.955Z,-1.18
2023-02-28T07:54:09.995Z,-1.01
2023-02-28T07:59:18.342Z,-0.83
2023-02-28T08:04:27.980Z,-0.63
2023-02-28T08:09:35.569Z,-0.41
2023-02-28T08:14:43.258Z,-0.20
2023-02-28T08:19:52.554Z,-0.00
2023-02-28T08:25:00.337Z,0.19
2023-02-28T08:30:11.225Z,0.38
2023-02-28T08:35:18.312Z,0.58
2023-02-28T08:40:25.965Z,0.78
2023-02-28T08:45:33.502Z,0.98
2023-02-28T08:50:41.659Z,1.20
2023-02-28T08:55:49.860Z,1.40
2023-02-28T09:00:58.977Z,1.62
2023-02-28T09:06:07.934Z,1.83
2023-02-28T09:11:16.601Z,2.05
2023-02-28T09:16:26.437Z,2.23
2023-02-28T09:21:34.748Z,2.40
2023-02-28T09:26:56.427Z,2.56
2023-02-28T09:32:11.547Z,2.71
2023-02-28T09:37:20.638Z,2.85
2023-02-28T09:42:34.409Z,2.96
2023-02-28T09:47:48.331Z,3.08
2023-02-28T09:52:57.931Z,3.18
2023-02-28T09:58:06.929Z,3.26
2023-02-28T10:03:31.781Z,3.35
2023-02-28T10:08:46.637Z,3.44
2023-02-28T10:14:02.838Z,3.53
2023-02-28T10:19:18.368Z,3.61
2023-02-28T10:24:31.751Z,3.69
2023-02-28T10:29:46.702Z,3.78
2023-02-28T10:35:02.379Z,3.88
2023-02-28T10:40:28.793Z,3.98
2023-02-28T10:45:38.803Z,4.08
2023-02-28T10:50:58.756Z,4.23
2023-02-28T10:56:16.205Z,4.53
2023-02-28T11:01:25.507Z,4.76
2023-02-28T11:06:35.882Z,5.22
2023-02-28T11:11:50.898Z,5.23
2023-02-28T11:17:01.837Z,4.64
2023-02-28T11:22:10.676Z,4.30
2023-02-28T11:27:43.728Z,4.09
2023-02-28T11:32:55.189Z,3.95
2023-02-28T11:38:04.344Z,3.84
2023-02-28T11:43:29.773Z,3.76
2023-02-28T11:48:49.145Z,3.73
2023-02-28T11:54:15.338Z,3.75
2023-02-28T11:59:40.989Z,3.95
2023-02-28T12:05:04.480Z,4.42
2023-02-28T12:10:23.711Z,4.74
2023-02-28T12:16:01.366Z,4.81
2023-02-28T12:21:20.956Z,4.57
2023-02-28T12:26:39.226Z,4.47
2023-02-28T12:31:52.259Z,4.41
2023-02-28T12:37:07.817Z,4.38
2023-02-28T12:42:21.836Z,4.36
2023-02-28T12:47:30.676Z,4.37
2023-02-28T12:52:44.610Z,4.41
2023-02-28T12:57:59.615Z,4.46
2023-02-28T13:03:33.629Z,4.51
2023-02-28T13:09:11.888Z,4.56
2023-02-28T13:14:31.919Z,4.61
2023-02-28T13:19:44.161Z,4.66
2023-02-28T13:24:52.801Z,4.73
2023-02-28T13:30:01.400Z,4.81
2023-02-28T13:35:38.216Z,4.87
2023-02-28T13:40:47.204Z,4.94
2023-02-28T13:46:15.786Z,4.99
2023-02-28T13:51:48.222Z,5.05
2023-02-28T13:57:04.673Z,5.10
2023-02-28T14:02:43.984Z,5.15
2023-02-28T14:07:54.988Z,5.18
2023-02-28T14:13:06.342Z,5.21
2023-02-28T14:18:25.871Z,5.24
2023-02-28T14:24:24.469Z,5.26
2023-02-28T14:30:09.522Z,5.30
2023-02-28T14:35:31.518Z,5.33
2023-02-28T14:40:41.520Z,5.37
2023-02-28T14:45:55.692Z,5.39
2023-02-28T14:51:03.979Z,5.41
2023-02-28T14:56:27.437Z,5.44
2023-02-28T15:01:36.855Z,5.44
2023-02-28T15:06:45.760Z,5.45
2023-02-28T15:11:55.300Z,5.44
2023-02-28T15:17:11.341Z,5.43
2023-02-28T15:22:23.528Z,5.41
2023-02-28T15:27:34.023Z,5.38
2023-02-28T15:32:42.656Z,5.35
2023-02-28T15:37:55.977Z,5.31
2023-02-28T15:43:16.851Z,5.26
2023-02-28T15:48:27.942Z,5.21
2023-02-28T15:53:39.258Z,5.17
2023-02-28T15:58:47.688Z,5.10
2023-02-28T16:04:00.435Z,5.02
2023-02-28T16:09:12.154Z,4.93
2023-02-28T16:14:24.489Z,4.81
2023-02-28T16:19:31.158Z,4.67
2023-02-28T16:24:41.596Z,4.54
2023-02-28T16:29:51.390Z,4.42
2023-02-28T16:35:00.797Z,4.30
2023-02-28T16:40:13.152Z,4.18
2023-02-28T16:45:21.152Z,4.06
2023-02-28T16:50:33.954Z,3.96
2023-02-28T16:55:42.998Z,3.85
2023-02-28T17:00:51.315Z,3.75
2023-02-28T17:05:59.997Z,3.64
2023-02-28T17:11:08.598Z,3.52
2023-02-28T17:16:24.264Z,3.40
2023-02-28T17:21:34.544Z,3.28
2023-02-28T17:26:44.333Z,3.15
2023-02-28T17:31:51.938Z,3.02
2023-02-28T17:37:00.679Z,2.91
2023-02-28T17:42:09.894Z,2.80
2023-02-28T17:47:18.950Z,2.69
2023-02-28T17:52:27.718Z,2.59
2023-02-28T17:57:36.467Z,2.49
2023-02-28T18:02:44.939Z,2.39
2023-02-28T18:07:53.669Z,2.30
2023-02-28T18:13:02.225Z,2.20
2023-02-28T18:18:10.671Z,2.10
2023-02-28T18:23:20.978Z,2.00
2023-02-28T18:28:29.777Z,1.90
2023-02-28T18:33:37.394Z,1.81
2023-02-28T18:38:45.000Z,1.73
2023-02-28T18:43:54.821Z,1.64
2023-02-28T18:49:02.390Z,1.56
2023-02-28T18:54:10.829Z,1.48
2023-02-28T18:59:19.207Z,1.41
2023-02-28T19:04:27.652Z,1.34
2023-02-28T19:09:36.091Z,1.26
2023-02-28T19:14:44.407Z,1.19
2023-02-28T19:19:52.505Z,1.11
2023-02-28T19:25:00.866Z,1.04
2023-02-28T19:30:10.986Z,0.98
2023-02-28T19:35:19.413Z,0.91
2023-02-28T19:40:27.941Z,0.86
2023-02-28T19:45:36.690Z,0.80
2023-02-28T19:50:45.449Z,0.91
2023-02-28T19:55:54.101Z,1.31
2023-02-28T20:01:07.900Z,1.53
2023-02-28T20:06:16.530Z,1.74
2023-02-28T20:11:25.338Z,1.88
2023-02-28T20:16:34.032Z,2.01
2023-02-28T20:21:44.644Z,2.11
2023-02-28T20:26:53.725Z,2.19
2023-02-28T20:32:02.218Z,2.26
2023-02-28T20:37:09.568Z,2.31
2023-02-28T20:42:17.495Z,2.37
2023-02-28T20:47:25.944Z,2.41
2023-02-28T20:52:33.385Z,2.42
2023-02-28T20:57:42.011Z,2.43
2023-02-28T21:02:50.098Z,2.43
2023-02-28T21:07:58.075Z,2.45
2023-02-28T21:13:06.570Z,2.46
2023-02-28T21:18:16.063Z,2.47
2023-02-28T21:23:24.282Z,2.48
2023-02-28T21:28:33.504Z,2.49
2023-02-28T21:33:41.911Z,2.52
2023-02-28T21:38:51.448Z,2.55
2023-02-28T21:44:00.057Z,2.57
2023-02-28T21:49:08.562Z,2.58
2023-02-28T21:54:17.052Z,2.60
2023-02-28T21:59:25.947Z,2.61
2023-02-28T22:04:34.086Z,2.62
2023-02-28T22:09:42.344Z,2.63
2023-02-28T22:14:50.597Z,2.66
2023-02-28T22:19:59.885Z,2.67
2023-02-28T22:25:09.985Z,2.69
2023-02-28T22:30:18.548Z,2.69
2023-02-28T22:35:26.106Z,2.72
2023-02-28T22:40:35.722Z,2.76
2023-02-28T22:45:44.770Z,2.78
2023-02-28T22:50:52.370Z,2.82
2023-02-28T22:56:00.348Z,2.85
2023-02-28T23:01:13.552Z,2.88
2023-02-28T23:06:23.697Z,2.91
2023-02-28T23:11:32.941Z,2.93
2023-02-28T23:16:42.705Z,2.95
2023-02-28T23:21:50.952Z,2.97
2023-02-28T23:27:02.592Z,2.98
2023-02-28T23:32:10.249Z,2.99
2023-02-28T23:37:18.573Z,2.99
2023-02-28T23:42:27.676Z,3.00
2023-02-28T23:47:35.884Z,3.00
2023-02-28T23:52:44.273Z,3.00
2023-02-28T23:57:52.551Z,3.00
